Neal J. Seago — WDG3267 — position and weather

sailwx.info

Track history (hours):
 
Tides and Currents Weather Stations Pressure Air Temp Water Temp Dewpoint Dewpoint Depression Visibility Wind Speed Wind Dir Waves Ship Positions

Neal J. Seago

Owner: Blessey Enterprises, Inc., Harahan, LA. More information available from US FCC via Universal Licensing System and Coast Guard Vessel Documentation Center.

Last reported at 2018-Jul-21 19:23 UTC. Time now 2018-Jul-21 19:35 UTC.
Position N 29°45' W 095°06'.

Length 15 m; draft 3 m.

Type: Towing. MMSI: 367524270.

Date/timePositionNaut miles runAvg speedWind from/ knotsBaromVisibWave heightAir tempDewpointWater temp
2018-Jul-21 19:23N 29°45' W 095°06'1 0.4
2018-Jul-21 17:54N 29°46' W 095°06'1 1.8
2018-Jul-21 17:27N 29°46' W 095°05'2 2.3
2018-Jul-21 16:45N 29°47' W 095°05'0 0.9
2018-Jul-21 16:27N 29°47' W 095°04'2 3.5
2018-Jul-21 15:56N 29°46' W 095°04'2 5.0
2018-Jul-21 15:30N 29°44' W 095°03'2 4.7
2018-Jul-21 15:00N 29°42' W 095°01'2 4.9
2018-Jul-21 14:30N 29°41' W 094°59'3 5.5
2018-Jul-21 14:00N 29°38' W 094°58'3 5.6
2018-Jul-21 13:30N 29°35' W 094°56'3 5.7
2018-Jul-21 13:00N 29°33' W 094°54'3 5.8
2018-Jul-21 12:29N 29°31' W 094°53'3 5.9
2018-Jul-21 12:00N 29°28' W 094°51'3 6.0
2018-Jul-21 11:28N 29°25' W 094°50'3 6.1
2018-Jul-21 11:00N 29°23' W 094°48'2 4.9
2018-Jul-21 10:30N 29°24' W 094°46'1 2.2
2018-Jul-21 10:00N 29°24' W 094°45'3 4.9
2018-Jul-21 09:28N 29°26' W 094°42'2 3.9
2018-Jul-21 09:00N 29°27' W 094°41'2 5.0
2018-Jul-21 08:30N 29°28' W 094°38'3 5.2
2018-Jul-21 08:00N 29°29' W 094°35'3 5.2
2018-Jul-21 07:30N 29°30' W 094°33'3 5.1
2018-Jul-21 07:00N 29°31' W 094°30'2 4.4
2018-Jul-21 06:30N 29°33' W 094°28'2 4.6
2018-Jul-21 06:00N 29°34' W 094°26'2 3.8
2018-Jul-21 05:30N 29°36' W 094°25'2 4.5
2018-Jul-21 05:00N 29°36' W 094°22'2 4.8
2018-Jul-21 04:30N 29°37' W 094°20'2 4.8
2018-Jul-21 04:00N 29°38' W 094°17'2 5.0
2018-Jul-21 03:30N 29°40' W 094°15'3 5.0
2018-Jul-21 03:00N 29°41' W 094°12'2 3.0
2018-Jul-21 02:30N 29°41' W 094°11'1 1.5
2018-Jul-21 02:00N 29°41' W 094°10'2 4.5
2018-Jul-21 01:30N 29°43' W 094°08'1 2.9
2018-Jul-21 01:00N 29°43' W 094°06'2 4.0
2018-Jul-21 00:30N 29°45' W 094°05'2 4.3
2018-Jul-21 00:00N 29°46' W 094°03'2 4.4
2018-Jul-20 23:30N 29°47' W 094°01'2 4.5
2018-Jul-20 23:00N 29°49' W 093°59'2 5.0
2018-Jul-20 22:31N 29°51' W 093°57'4 6.9
2018-Jul-20 22:00N 29°54' W 093°55'3 6.4
2018-Jul-20 21:30N 29°56' W 093°52'2 3.4
2018-Jul-20 21:00N 29°58' W 093°52'0 0.2
2018-Jul-20 20:30N 29°58' W 093°52'0 0.0
2018-Jul-20 20:00N 29°58' W 093°52'0 0.0
2018-Jul-20 19:30N 29°58' W 093°52'0 0.0
2018-Jul-20 19:00N 29°58' W 093°52'0 0.0
2018-Jul-20 18:30N 29°58' W 093°52'0 0.0
2018-Jul-20 18:00N 29°58' W 093°52'0 0.0
2018-Jul-20 17:30N 29°58' W 093°52'0 0.0
2018-Jul-20 17:00N 29°58' W 093°52'0 0.0
2018-Jul-20 16:30N 29°58' W 093°52'0 0.0
2018-Jul-20 16:00N 29°58' W 093°52'0 0.0
2018-Jul-20 15:30N 29°58' W 093°52'0 0.0
2018-Jul-20 15:00N 29°58' W 093°52'0 0.0
2018-Jul-20 14:30N 29°58' W 093°52'0 0.0
2018-Jul-20 13:59N 29°58' W 093°52'0 0.2
2018-Jul-20 13:30N 29°58' W 093°52'0 0.0
2018-Jul-20 13:00N 29°58' W 093°52'0 0.0
2018-Jul-20 12:30N 29°58' W 093°52'0 0.0
2018-Jul-20 12:00N 29°58' W 093°52'0 0.0
2018-Jul-20 11:30N 29°58' W 093°52'0 0.0
2018-Jul-20 11:00N 29°58' W 093°52'0 0.0
2018-Jul-20 10:30N 29°58' W 093°52'0 0.0
2018-Jul-20 10:00N 29°58' W 093°52'0 0.0
2018-Jul-20 09:30N 29°58' W 093°52'0 0.0
2018-Jul-20 09:00N 29°58' W 093°52'0 0.0
2018-Jul-20 08:30N 29°58' W 093°52'0 0.0
2018-Jul-20 08:00N 29°58' W 093°52'0 0.0
2018-Jul-20 07:30N 29°58' W 093°52'0 0.0
2018-Jul-20 07:00N 29°58' W 093°52'0 0.0
2018-Jul-20 06:30N 29°58' W 093°52'0 0.0
2018-Jul-20 06:01N 29°58' W 093°52'0 0.0
2018-Jul-20 05:30N 29°58' W 093°52'0 0.0
2018-Jul-20 05:00N 29°58' W 093°52'0 0.0
2018-Jul-20 04:30N 29°58' W 093°52'0 0.0
2018-Jul-20 04:00N 29°58' W 093°52'0 0.0
2018-Jul-20 03:30N 29°58' W 093°52'0 0.0
2018-Jul-20 03:00N 29°58' W 093°52'0 0.0
2018-Jul-20 02:30N 29°58' W 093°52'0 0.0
2018-Jul-20 02:00N 29°58' W 093°52'0 0.0
2018-Jul-20 01:30N 29°58' W 093°52'0 0.0
2018-Jul-20 01:00N 29°58' W 093°52'0 0.0
2018-Jul-20 00:30N 29°58' W 093°52'1 2.8
2018-Jul-20 00:00N 29°56' W 093°52'3 5.4
2018-Jul-19 23:30N 29°54' W 093°54'3 5.4
2018-Jul-19 23:00N 29°52' W 093°56'3 5.4
2018-Jul-19 22:30N 29°50' W 093°57'3 5.7
2018-Jul-19 22:00N 29°48' W 094°00'3 5.9
2018-Jul-19 21:30N 29°46' W 094°03'3 5.9
2018-Jul-19 21:00N 29°44' W 094°05'3 5.9
2018-Jul-19 20:30N 29°43' W 094°08'1 1.4
2018-Jul-19 20:00N 29°42' W 094°09'2 4.4
2018-Jul-19 19:30N 29°43' W 094°07'2 4.6
2018-Jul-19 19:00N 29°45' W 094°05'2 4.6
2018-Jul-19 18:30N 29°46' W 094°02'2 4.7
2018-Jul-19 18:00N 29°48' W 094°00'2 4.5
2018-Jul-19 17:30N 29°49' W 093°58'2 4.5
2018-Jul-19 17:00N 29°51' W 093°57'3 5.2
2018-Jul-19 16:30N 29°53' W 093°55'3 5.3
2018-Jul-19 16:00N 29°55' W 093°53'2 4.9
2018-Jul-19 15:30N 29°57' W 093°52'2 3.8
2018-Jul-19 15:00N 29°59' W 093°53'0 0.0
2018-Jul-19 14:00N 29°59' W 093°53'0 0.0
2018-Jul-19 13:29N 29°59' W 093°53'0 0.0
2018-Jul-19 13:01N 29°59' W 093°53'0 0.0
2018-Jul-19 12:30N 29°59' W 093°53'0 0.0
2018-Jul-19 12:00N 29°59' W 093°53'0 0.0
2018-Jul-19 11:29N 29°59' W 093°53'0 0.0
2018-Jul-19 10:59N 29°59' W 093°53'0 0.0
2018-Jul-19 10:30N 29°59' W 093°53'0 0.0
2018-Jul-19 10:00N 29°59' W 093°53'0 0.0
2018-Jul-19 09:30N 29°59' W 093°53'0 0.0
2018-Jul-19 09:00N 29°59' W 093°53'0 0.0
2018-Jul-19 08:30N 29°59' W 093°53'0 0.0
2018-Jul-19 08:00N 29°59' W 093°53'0 0.0
2018-Jul-19 07:30N 29°59' W 093°53'0 0.0
2018-Jul-19 07:00N 29°59' W 093°53'0 0.0
2018-Jul-19 06:30N 29°59' W 093°53'0 0.0
2018-Jul-19 06:00N 29°59' W 093°53'0 0.0
2018-Jul-19 05:28N 29°59' W 093°53'0 0.0
2018-Jul-19 05:00N 29°59' W 093°53'0 0.0
2018-Jul-19 04:30N 29°59' W 093°53'0 0.0
2018-Jul-19 04:00N 29°59' W 093°53'0 0.0
2018-Jul-19 03:30N 29°59' W 093°53'0 0.0
2018-Jul-19 03:00N 29°59' W 093°53'0 0.0
2018-Jul-19 02:30N 29°59' W 093°53'0 0.0
2018-Jul-19 01:58N 29°59' W 093°53'0 0.0
2018-Jul-19 01:30N 29°59' W 093°53'0 0.0
2018-Jul-19 01:00N 29°59' W 093°53'0 0.0
2018-Jul-19 00:30N 29°59' W 093°53'0 0.0
2018-Jul-19 00:00N 29°59' W 093°53'0 0.0
2018-Jul-18 23:30N 29°59' W 093°53'0 0.0
2018-Jul-18 23:00N 29°59' W 093°53'0 0.0
2018-Jul-18 22:27N 29°59' W 093°53'0 0.0
2018-Jul-18 22:00N 29°59' W 093°53'0 0.0
2018-Jul-18 21:26N 29°59' W 093°53'0 0.0
2018-Jul-18 21:00N 29°59' W 093°53'0 0.0
2018-Jul-18 20:30N 29°59' W 093°53'0 0.0
2018-Jul-18 19:59N 29°59' W 093°53'0 0.0
2018-Jul-18 19:30N 29°59' W 093°53'0 0.0
2018-Jul-18 19:00N 29°59' W 093°53'0 0.0
2018-Jul-18 18:29N 29°59' W 093°53'0 0.0
2018-Jul-18 18:00N 29°59' W 093°53'0 0.0
2018-Jul-18 17:30N 29°59' W 093°53'1 2.5
2018-Jul-18 17:00N 29°59' W 093°54'1 1.5
2018-Jul-18 16:30N 29°60' W 093°55'0 0.0
2018-Jul-18 16:00N 29°60' W 093°55'0 0.0
2018-Jul-18 15:30N 29°60' W 093°55'0 0.0
2018-Jul-18 15:00N 29°60' W 093°55'0 0.0
2018-Jul-18 14:30N 29°60' W 093°55'0 0.0
2018-Jul-18 14:01N 29°60' W 093°55'0 0.0
2018-Jul-18 13:30N 29°60' W 093°55'0 0.0
2018-Jul-18 13:00N 29°60' W 093°55'0 0.0
2018-Jul-18 12:30N 29°60' W 093°55'0 0.0
2018-Jul-18 12:00N 29°60' W 093°55'0 0.0
2018-Jul-18 11:30N 29°60' W 093°55'0 0.0
2018-Jul-18 10:30N 29°60' W 093°55'0 0.0
2018-Jul-18 10:00N 29°60' W 093°55'0 0.0
2018-Jul-18 09:30N 29°60' W 093°55'0 0.0
2018-Jul-18 09:00N 29°60' W 093°55'0 0.0
2018-Jul-18 08:30N 29°60' W 093°55'0 0.0
2018-Jul-18 08:00N 29°60' W 093°55'0 0.0
2018-Jul-18 07:30N 29°60' W 093°55'0 0.0
2018-Jul-18 07:00N 29°60' W 093°55'0 0.0
2018-Jul-18 06:30N 29°60' W 093°55'0 0.0
2018-Jul-18 06:00N 29°60' W 093°55'0 0.0
2018-Jul-18 05:30N 29°60' W 093°55'0 0.0
2018-Jul-18 05:00N 29°60' W 093°55'0 0.0
2018-Jul-18 04:30N 29°60' W 093°55'0 0.0
2018-Jul-18 04:00N 29°60' W 093°55'0 0.0
2018-Jul-18 03:30N 29°60' W 093°55'0 0.0
2018-Jul-18 03:00N 29°60' W 093°55'0 0.0
2018-Jul-18 02:30N 29°60' W 093°55'0 0.0
2018-Jul-18 02:00N 29°60' W 093°55'0 0.0
2018-Jul-18 01:30N 29°60' W 093°55'0 0.0
2018-Jul-18 01:00N 29°60' W 093°55'0 0.0
2018-Jul-18 00:30N 29°60' W 093°55'0 0.0
2018-Jul-18 00:00N 29°60' W 093°55'0 0.0
2018-Jul-17 23:30N 29°60' W 093°55'0 0.0
2018-Jul-17 23:00N 29°60' W 093°55'0 0.0
2018-Jul-17 22:30N 29°60' W 093°55'0 0.0
2018-Jul-17 22:00N 29°60' W 093°55'0 0.0
2018-Jul-17 21:30N 29°60' W 093°55'0 0.0
2018-Jul-17 21:00N 29°60' W 093°55'0 0.0
2018-Jul-17 20:30N 29°60' W 093°55'0 0.0
2018-Jul-17 20:00N 29°60' W 093°55'0 0.0
2018-Jul-17 19:30N 29°60' W 093°55'0 0.0
2018-Jul-17 19:00N 29°60' W 093°55'0 0.0
2018-Jul-17 18:30N 29°60' W 093°55'0 0.0
2018-Jul-17 18:00N 29°60' W 093°55'0 0.0
2018-Jul-17 17:30N 29°60' W 093°55'0 0.0
2018-Jul-17 17:00N 29°60' W 093°55'0 0.0
2018-Jul-17 16:30N 29°60' W 093°55'0 0.0
2018-Jul-17 16:00N 29°60' W 093°55'0 0.0
2018-Jul-17 15:30N 29°60' W 093°55'0 0.0
2018-Jul-17 15:00N 29°60' W 093°55'0 0.0
2018-Jul-17 14:30N 29°60' W 093°55'0 0.0
2018-Jul-17 14:00N 29°60' W 093°55'0 0.0
2018-Jul-17 13:30N 29°60' W 093°55'0 0.0
2018-Jul-17 13:00N 29°60' W 093°55'0 0.0
2018-Jul-17 12:30N 29°60' W 093°55'0 0.0
2018-Jul-17 12:00N 29°60' W 093°55'0 0.0
2018-Jul-17 11:30N 29°60' W 093°55'0 0.0
2018-Jul-17 11:00N 29°60' W 093°55'0 0.0
2018-Jul-17 10:30N 29°60' W 093°55'0 0.0
2018-Jul-17 10:00N 29°60' W 093°55'0 0.0
2018-Jul-17 09:30N 29°60' W 093°55'0 0.0
2018-Jul-17 09:00N 29°60' W 093°55'0 0.0
2018-Jul-17 08:30N 29°60' W 093°55'0 0.0
2018-Jul-17 08:00N 29°60' W 093°55'0 0.0
2018-Jul-17 07:30N 29°60' W 093°55'0 0.0
2018-Jul-17 07:00N 29°60' W 093°55'0 0.0
2018-Jul-17 06:30N 29°60' W 093°55'0 0.0
2018-Jul-17 06:00N 29°60' W 093°55'0 0.0
2018-Jul-17 05:30N 29°60' W 093°55'0 0.0
2018-Jul-17 05:00N 29°60' W 093°55'0 0.0
2018-Jul-17 04:30N 29°60' W 093°55'0 0.0
2018-Jul-17 04:00N 29°60' W 093°55'2 4.3
2018-Jul-17 03:30N 29°59' W 093°53'2 4.5
2018-Jul-17 03:00N 29°57' W 093°52'3 5.9
2018-Jul-17 02:30N 29°54' W 093°54'3 5.8
2018-Jul-17 02:00N 29°52' W 093°56'3 5.6
2018-Jul-17 01:30N 29°50' W 093°57'2 4.9
2018-Jul-17 01:00N 29°48' W 093°60'2 4.8
2018-Jul-17 00:30N 29°47' W 094°02'5 4.8
2018-Jul-16 23:30N 29°44' W 094°06'2 4.8
2018-Jul-16 23:00N 29°42' W 094°08'2 4.7
2018-Jul-16 22:30N 29°41' W 094°11'2 4.2
2018-Jul-16 22:00N 29°40' W 094°13'2 4.6
2018-Jul-16 21:30N 29°39' W 094°15'2 4.9
2018-Jul-16 21:00N 29°38' W 094°18'2 4.6
2018-Jul-16 20:30N 29°37' W 094°20'2 4.7
2018-Jul-16 20:00N 29°36' W 094°22'2 4.1
2018-Jul-16 19:29N 29°35' W 094°25'2 3.9
2018-Jul-16 19:00N 29°34' W 094°26'2 4.2
2018-Jul-16 18:25N 29°33' W 094°28'3 4.4
2018-Jul-16 17:43N 29°31' W 094°31'2 4.7
2018-Jul-16 17:15N 29°30' W 094°34'2 4.5
2018-Jul-16 16:48N 29°29' W 094°36'2 4.7
2018-Jul-16 16:23N 29°28' W 094°38'2 4.7
2018-Jul-16 16:00N 29°28' W 094°40'3 4.8
2018-Jul-16 15:27N 29°26' W 094°42'2 5.5
2018-Jul-16 15:00N 29°25' W 094°44'3 5.4
2018-Jul-16 14:30N 29°23' W 094°47'2 3.4
2018-Jul-16 14:00N 29°23' W 094°49'2 4.3
2018-Jul-16 13:30N 29°25' W 094°50'2 4.1
2018-Jul-16 13:00N 29°27' W 094°51'2 4.8
2018-Jul-16 12:29N 29°29' W 094°52'2 5.1
2018-Jul-16 12:00N 29°31' W 094°53'3 5.4
2018-Jul-16 11:30N 29°33' W 094°55'3 5.6
2018-Jul-16 11:00N 29°36' W 094°57'3 5.2
2018-Jul-16 10:31N 29°37' W 094°59'2 3.7
2018-Jul-16 10:01N 29°37' W 095°02'0 0.0
2018-Jul-16 09:30N 29°37' W 095°02'0 0.0
2018-Jul-16 09:00N 29°37' W 095°02'0 0.0
2018-Jul-16 08:30N 29°37' W 095°02'0 0.0
2018-Jul-16 08:00N 29°37' W 095°02'0 0.0
2018-Jul-16 07:30N 29°37' W 095°02'0 0.0
2018-Jul-16 07:00N 29°37' W 095°02'0 0.0
2018-Jul-16 06:30N 29°37' W 095°02'0 0.0
2018-Jul-16 06:00N 29°37' W 095°02'0 0.0
2018-Jul-16 05:31N 29°37' W 095°02'0 0.0
2018-Jul-16 05:00N 29°37' W 095°02'0 0.0
2018-Jul-16 04:29N 29°37' W 095°02'0 0.0
2018-Jul-16 04:00N 29°37' W 095°02'0 0.0
2018-Jul-16 03:30N 29°37' W 095°02'0 0.0
2018-Jul-16 03:00N 29°37' W 095°02'0 0.0
2018-Jul-16 02:30N 29°37' W 095°02'0 0.0
2018-Jul-16 02:00N 29°37' W 095°02'0 0.0
2018-Jul-16 01:30N 29°37' W 095°02'0 0.0
2018-Jul-16 01:00N 29°37' W 095°02'0 0.0
2018-Jul-16 00:24N 29°37' W 095°02'0 0.0
2018-Jul-15 23:59N 29°37' W 095°02'0 0.0
2018-Jul-15 23:28N 29°37' W 095°02'0 0.0
2018-Jul-15 22:59N 29°37' W 095°02'0 0.0
2018-Jul-15 22:30N 29°37' W 095°02'0 0.0
2018-Jul-15 21:59N 29°37' W 095°02'0 0.0
2018-Jul-15 21:29N 29°37' W 095°02'0 0.0
2018-Jul-15 21:00N 29°37' W 095°02'0 0.0
2018-Jul-15 20:28N 29°37' W 095°02'0 0.0
2018-Jul-15 19:56N 29°37' W 095°02'0 0.0
2018-Jul-15 19:26N 29°37' W 095°02'0 0.0
2018-Jul-15 18:47N 29°37' W 095°02'0 0.0
2018-Jul-15 18:23N 29°37' W 095°02'0 0.0
2018-Jul-15 17:48N 29°37' W 095°02'0 0.0
2018-Jul-15 17:30N 29°37' W 095°02'0 0.0
2018-Jul-15 17:00N 29°37' W 095°02'0 0.0
2018-Jul-15 16:30N 29°37' W 095°02'0 0.0
2018-Jul-15 16:00N 29°37' W 095°02'0 0.0
2018-Jul-15 15:30N 29°37' W 095°02'0 0.0
2018-Jul-15 14:59N 29°37' W 095°02'0 0.0
2018-Jul-15 14:29N 29°37' W 095°02'0 0.0
2018-Jul-15 13:56N 29°37' W 095°02'0 0.0
2018-Jul-15 13:30N 29°37' W 095°02'0 0.0
2018-Jul-15 13:00N 29°37' W 095°02'0 0.0
2018-Jul-15 12:29N 29°37' W 095°02'0 0.0
2018-Jul-15 11:58N 29°37' W 095°02'0 0.0
2018-Jul-15 11:30N 29°37' W 095°02'0 0.0
2018-Jul-15 11:00N 29°37' W 095°02'0 0.0
2018-Jul-15 10:30N 29°37' W 095°02'0 0.0
2018-Jul-15 10:00N 29°37' W 095°02'0 0.0
2018-Jul-15 09:30N 29°37' W 095°02'0 0.0
2018-Jul-15 09:00N 29°37' W 095°02'0 0.0
2018-Jul-15 08:30N 29°37' W 095°02'0 0.0
2018-Jul-15 08:00N 29°37' W 095°02'0 0.0
2018-Jul-15 07:30N 29°37' W 095°02'0 0.0
2018-Jul-15 07:00N 29°37' W 095°02'0 0.0
2018-Jul-15 06:30N 29°37' W 095°02'0 0.0
2018-Jul-15 06:00N 29°37' W 095°02'0 0.0
2018-Jul-15 05:30N 29°37' W 095°02'0 0.6
2018-Jul-15 05:00N 29°37' W 095°01'3 5.3
2018-Jul-15 04:30N 29°37' W 094°58'2 4.2
2018-Jul-15 04:00N 29°39' W 094°58'3 6.0
2018-Jul-15 03:30N 29°42' W 094°60'4 4.7
2018-Jul-15 02:43N 29°44' W 095°03'2 5.7
2018-Jul-15 02:23N 29°46' W 095°04'2 0.1
2018-Jul-14 06:07N 29°47' W 095°05'0 0.1
2018-Jul-14 04:44N 29°47' W 095°05'0 0.1
2018-Jul-14 04:02N 29°47' W 095°05'0 0.3
2018-Jul-14 03:59N 29°47' W 095°05'0 0.2
2018-Jul-14 03:30N 29°47' W 095°05'0 0.0
2018-Jul-14 03:00N 29°47' W 095°05'0 0.0
2018-Jul-14 02:27N 29°47' W 095°05'0 0.0
2018-Jul-14 01:57N 29°47' W 095°05'0 0.0
2018-Jul-14 01:30N 29°47' W 095°05'0 0.0
2018-Jul-14 01:00N 29°47' W 095°05'0 0.0
2018-Jul-14 00:30N 29°47' W 095°05'0 0.0
2018-Jul-14 00:00N 29°47' W 095°05'0 0.0
2018-Jul-13 23:30N 29°47' W 095°05'0 0.0
2018-Jul-13 23:00N 29°47' W 095°05'0 0.0
2018-Jul-13 22:27N 29°47' W 095°05'0 0.0
2018-Jul-13 22:00N 29°47' W 095°05'0 0.0
2018-Jul-13 21:14N 29°47' W 095°05'0 0.0
2018-Jul-13 20:59N 29°47' W 095°05'0 0.0
2018-Jul-13 20:19N 29°47' W 095°05'0 0.0
2018-Jul-13 20:00N 29°47' W 095°05'0 0.3
2018-Jul-13 19:30N 29°47' W 095°05'0 0.0
2018-Jul-13 19:00N 29°47' W 095°05'0 0.0
2018-Jul-13 18:28N 29°47' W 095°05'0 0.0
2018-Jul-13 17:30N 29°47' W 095°05'0 0.0
2018-Jul-13 12:37N 29°47' W 095°05'0 1.2
2018-Jul-13 12:27N 29°47' W 095°04'0 0.3
2018-Jul-13 11:50N 29°47' W 095°05'0 0.4
2018-Jul-13 11:28N 29°47' W 095°05'0 0.1
2018-Jul-13 10:53N 29°47' W 095°05'0 0.1
2018-Jul-13 10:30N 29°47' W 095°05'0 0.2
2018-Jul-13 09:54N 29°47' W 095°05'0 0.0
2018-Jul-13 09:26N 29°47' W 095°05'0 0.0
2018-Jul-13 09:00N 29°47' W 095°05'0 0.0
2018-Jul-13 08:29N 29°47' W 095°05'0 0.0
2018-Jul-13 08:00N 29°47' W 095°05'0 0.0
2018-Jul-13 07:23N 29°47' W 095°05'0 0.0
2018-Jul-13 07:00N 29°47' W 095°05'0 0.0
2018-Jul-13 06:29N 29°47' W 095°05'0 0.1
2018-Jul-13 05:09N 29°47' W 095°05'0 0.1
2018-Jul-13 04:57N 29°47' W 095°05'0 0.3
2018-Jul-13 04:29N 29°47' W 095°05'1 2.7
2018-Jul-13 03:58N 29°46' W 095°05'3 5.4
2018-Jul-13 03:30N 29°44' W 095°03'2 4.2
2018-Jul-13 02:59N 29°42' W 095°01'2 4.6
2018-Jul-13 02:30N 29°41' W 094°59'2 5.0
2018-Jul-13 02:00N 29°39' W 094°58'3 5.2
2018-Jul-13 01:30N 29°36' W 094°57'3 5.1
2018-Jul-13 01:00N 29°34' W 094°55'3 6.1
2018-Jul-13 00:30N 29°32' W 094°53'3 6.0
2018-Jul-12 23:59N 29°29' W 094°52'4 6.0
2018-Jul-12 23:23N 29°26' W 094°50'2 5.8
2018-Jul-12 23:00N 29°24' W 094°49'2 4.4
2018-Jul-12 22:29N 29°23' W 094°46'2 4.8
2018-Jul-12 22:00N 29°24' W 094°45'13 5.1
2018-Jul-12 19:22N 29°31' W 094°31'3 4.9
2018-Jul-12 18:44N 29°33' W 094°28'1 5.1
2018-Jul-12 18:30N 29°34' W 094°27'2 4.6
2018-Jul-12 17:59N 29°35' W 094°25'2 3.6
2018-Jul-12 17:29N 29°36' W 094°23'2 4.6
2018-Jul-12 17:00N 29°37' W 094°21'3 5.2
2018-Jul-12 16:30N 29°38' W 094°18'3 5.2
2018-Jul-12 15:59N 29°39' W 094°16'3 5.2
2018-Jul-12 15:30N 29°40' W 094°13'3 5.2
2018-Jul-12 15:00N 29°41' W 094°10'3 5.4
2018-Jul-12 14:30N 29°43' W 094°08'3 5.3
2018-Jul-12 14:00N 29°44' W 094°05'2 5.1
2018-Jul-12 13:30N 29°46' W 094°03'3 5.7
2018-Jul-12 13:00N 29°48' W 094°00'3 5.4
2018-Jul-12 12:30N 29°49' W 093°58'2 4.2
2018-Jul-12 12:00N 29°51' W 093°57'2 4.2
2018-Jul-12 11:30N 29°53' W 093°55'2 4.5
2018-Jul-12 11:00N 29°55' W 093°54'2 4.3
2018-Jul-12 10:30N 29°56' W 093°52'2 4.6
2018-Jul-12 10:00N 29°59' W 093°52'1 2.1
2018-Jul-12 09:30N 29°59' W 093°53'0 0.0
2018-Jul-12 09:00N 29°59' W 093°53'0 0.1
2018-Jul-12 08:30N 29°59' W 093°53'0 0.0
2018-Jul-12 08:00N 29°59' W 093°53'0 0.0
2018-Jul-12 07:26N 29°59' W 093°53'0 0.0
2018-Jul-12 07:00N 29°59' W 093°53'0 0.0
2018-Jul-12 06:30N 29°59' W 093°53'0 0.0
2018-Jul-12 06:00N 29°59' W 093°53'0 0.0
2018-Jul-12 05:30N 29°59' W 093°53'0 0.0
2018-Jul-12 04:52N 29°59' W 093°53'0 0.0
2018-Jul-12 04:30N 29°59' W 093°53'0 0.0
2018-Jul-12 03:58N 29°59' W 093°53'0 0.0
2018-Jul-12 03:30N 29°59' W 093°53'0 0.0
2018-Jul-12 02:59N 29°59' W 093°53'0 0.0
2018-Jul-12 02:30N 29°59' W 093°53'0 0.0
2018-Jul-12 02:00N 29°59' W 093°53'0 0.0
2018-Jul-12 01:30N 29°59' W 093°53'0 0.0
2018-Jul-12 01:00N 29°59' W 093°53'0 0.0
2018-Jul-12 00:30N 29°59' W 093°53'0 0.0
2018-Jul-12 00:00N 29°59' W 093°53'0 0.0
2018-Jul-11 23:30N 29°59' W 093°53'0 0.0
2018-Jul-11 23:00N 29°59' W 093°53'0 0.0
2018-Jul-11 22:28N 29°59' W 093°53'0 0.0
2018-Jul-11 21:58N 29°59' W 093°53'0 0.0
2018-Jul-11 21:29N 29°59' W 093°53'0 0.0
2018-Jul-11 20:58N 29°59' W 093°53'0 0.0
2018-Jul-11 20:28N 29°59' W 093°53'0 0.0
2018-Jul-11 19:59N 29°59' W 093°53'0 0.0
2018-Jul-11 19:29N 29°59' W 093°53'  
Track history (hours):
 
Tides and Currents Weather Stations Pressure Air Temp Water Temp Dewpoint Dewpoint Depression Visibility Wind Speed Wind Dir Waves Ship Positions

Neal J. Seago

Owner: Blessey Enterprises, Inc., Harahan, LA. More information available from US FCC via Universal Licensing System and Coast Guard Vessel Documentation Center.

Last reported at 2018-Jul-21 19:23 UTC. Time now 2018-Jul-21 19:35 UTC.
Position N 29°45' W 095°06'.

Length 15 m; draft 3 m.

Type: Towing. MMSI: 367524270.

Date/timePositionNaut miles runAvg speedWind from/ knotsBaromVisibWave heightAir tempDewpointWater temp
2018-Jul-21 19:23N 29°45' W 095°06'1 0.4
2018-Jul-21 17:54N 29°46' W 095°06'1 1.8
2018-Jul-21 17:27N 29°46' W 095°05'2 2.3
2018-Jul-21 16:45N 29°47' W 095°05'0 0.9
2018-Jul-21 16:27N 29°47' W 095°04'2 3.5
2018-Jul-21 15:56N 29°46' W 095°04'2 5.0
2018-Jul-21 15:30N 29°44' W 095°03'2 4.7
2018-Jul-21 15:00N 29°42' W 095°01'2 4.9
2018-Jul-21 14:30N 29°41' W 094°59'3 5.5
2018-Jul-21 14:00N 29°38' W 094°58'3 5.6
2018-Jul-21 13:30N 29°35' W 094°56'3 5.7
2018-Jul-21 13:00N 29°33' W 094°54'3 5.8
2018-Jul-21 12:29N 29°31' W 094°53'3 5.9
2018-Jul-21 12:00N 29°28' W 094°51'3 6.0
2018-Jul-21 11:28N 29°25' W 094°50'3 6.1
2018-Jul-21 11:00N 29°23' W 094°48'2 4.9
2018-Jul-21 10:30N 29°24' W 094°46'1 2.2
2018-Jul-21 10:00N 29°24' W 094°45'3 4.9
2018-Jul-21 09:28N 29°26' W 094°42'2 3.9
2018-Jul-21 09:00N 29°27' W 094°41'2 5.0
2018-Jul-21 08:30N 29°28' W 094°38'3 5.2
2018-Jul-21 08:00N 29°29' W 094°35'3 5.2
2018-Jul-21 07:30N 29°30' W 094°33'3 5.1
2018-Jul-21 07:00N 29°31' W 094°30'2 4.4
2018-Jul-21 06:30N 29°33' W 094°28'2 4.6
2018-Jul-21 06:00N 29°34' W 094°26'2 3.8
2018-Jul-21 05:30N 29°36' W 094°25'2 4.5
2018-Jul-21 05:00N 29°36' W 094°22'2 4.8
2018-Jul-21 04:30N 29°37' W 094°20'2 4.8
2018-Jul-21 04:00N 29°38' W 094°17'2 5.0
2018-Jul-21 03:30N 29°40' W 094°15'3 5.0
2018-Jul-21 03:00N 29°41' W 094°12'2 3.0
2018-Jul-21 02:30N 29°41' W 094°11'1 1.5
2018-Jul-21 02:00N 29°41' W 094°10'2 4.5
2018-Jul-21 01:30N 29°43' W 094°08'1 2.9
2018-Jul-21 01:00N 29°43' W 094°06'2 4.0
2018-Jul-21 00:30N 29°45' W 094°05'2 4.3
2018-Jul-21 00:00N 29°46' W 094°03'2 4.4
2018-Jul-20 23:30N 29°47' W 094°01'2 4.5
2018-Jul-20 23:00N 29°49' W 093°59'2 5.0
2018-Jul-20 22:31N 29°51' W 093°57'4 6.9
2018-Jul-20 22:00N 29°54' W 093°55'3 6.4
2018-Jul-20 21:30N 29°56' W 093°52'2 3.4
2018-Jul-20 21:00N 29°58' W 093°52'0 0.2
2018-Jul-20 20:30N 29°58' W 093°52'0 0.0
2018-Jul-20 20:00N 29°58' W 093°52'0 0.0
2018-Jul-20 19:30N 29°58' W 093°52'0 0.0
2018-Jul-20 19:00N 29°58' W 093°52'0 0.0
2018-Jul-20 18:30N 29°58' W 093°52'0 0.0
2018-Jul-20 18:00N 29°58' W 093°52'0 0.0
2018-Jul-20 17:30N 29°58' W 093°52'0 0.0
2018-Jul-20 17:00N 29°58' W 093°52'0 0.0
2018-Jul-20 16:30N 29°58' W 093°52'0 0.0
2018-Jul-20 16:00N 29°58' W 093°52'0 0.0
2018-Jul-20 15:30N 29°58' W 093°52'0 0.0
2018-Jul-20 15:00N 29°58' W 093°52'0 0.0
2018-Jul-20 14:30N 29°58' W 093°52'0 0.0
2018-Jul-20 13:59N 29°58' W 093°52'0 0.2
2018-Jul-20 13:30N 29°58' W 093°52'0 0.0
2018-Jul-20 13:00N 29°58' W 093°52'0 0.0
2018-Jul-20 12:30N 29°58' W 093°52'0 0.0
2018-Jul-20 12:00N 29°58' W 093°52'0 0.0
2018-Jul-20 11:30N 29°58' W 093°52'0 0.0
2018-Jul-20 11:00N 29°58' W 093°52'0 0.0
2018-Jul-20 10:30N 29°58' W 093°52'0 0.0
2018-Jul-20 10:00N 29°58' W 093°52'0 0.0
2018-Jul-20 09:30N 29°58' W 093°52'0 0.0
2018-Jul-20 09:00N 29°58' W 093°52'0 0.0
2018-Jul-20 08:30N 29°58' W 093°52'0 0.0
2018-Jul-20 08:00N 29°58' W 093°52'0 0.0
2018-Jul-20 07:30N 29°58' W 093°52'0 0.0
2018-Jul-20 07:00N 29°58' W 093°52'0 0.0
2018-Jul-20 06:30N 29°58' W 093°52'0 0.0
2018-Jul-20 06:01N 29°58' W 093°52'0 0.0
2018-Jul-20 05:30N 29°58' W 093°52'0 0.0
2018-Jul-20 05:00N 29°58' W 093°52'0 0.0
2018-Jul-20 04:30N 29°58' W 093°52'0 0.0
2018-Jul-20 04:00N 29°58' W 093°52'0 0.0
2018-Jul-20 03:30N 29°58' W 093°52'0 0.0
2018-Jul-20 03:00N 29°58' W 093°52'0 0.0
2018-Jul-20 02:30N 29°58' W 093°52'0 0.0
2018-Jul-20 02:00N 29°58' W 093°52'0 0.0
2018-Jul-20 01:30N 29°58' W 093°52'0 0.0
2018-Jul-20 01:00N 29°58' W 093°52'0 0.0
2018-Jul-20 00:30N 29°58' W 093°52'1 2.8
2018-Jul-20 00:00N 29°56' W 093°52'3 5.4
2018-Jul-19 23:30N 29°54' W 093°54'3 5.4
2018-Jul-19 23:00N 29°52' W 093°56'3 5.4
2018-Jul-19 22:30N 29°50' W 093°57'3 5.7
2018-Jul-19 22:00N 29°48' W 094°00'3 5.9
2018-Jul-19 21:30N 29°46' W 094°03'3 5.9
2018-Jul-19 21:00N 29°44' W 094°05'3 5.9
2018-Jul-19 20:30N 29°43' W 094°08'1 1.4
2018-Jul-19 20:00N 29°42' W 094°09'2 4.4
2018-Jul-19 19:30N 29°43' W 094°07'2 4.6
2018-Jul-19 19:00N 29°45' W 094°05'2 4.6
2018-Jul-19 18:30N 29°46' W 094°02'2 4.7
2018-Jul-19 18:00N 29°48' W 094°00'2 4.5
2018-Jul-19 17:30N 29°49' W 093°58'2 4.5
2018-Jul-19 17:00N 29°51' W 093°57'3 5.2
2018-Jul-19 16:30N 29°53' W 093°55'3 5.3
2018-Jul-19 16:00N 29°55' W 093°53'2 4.9
2018-Jul-19 15:30N 29°57' W 093°52'2 3.8
2018-Jul-19 15:00N 29°59' W 093°53'0 0.0
2018-Jul-19 14:00N 29°59' W 093°53'0 0.0
2018-Jul-19 13:29N 29°59' W 093°53'0 0.0
2018-Jul-19 13:01N 29°59' W 093°53'0 0.0
2018-Jul-19 12:30N 29°59' W 093°53'0 0.0
2018-Jul-19 12:00N 29°59' W 093°53'0 0.0
2018-Jul-19 11:29N 29°59' W 093°53'0 0.0
2018-Jul-19 10:59N 29°59' W 093°53'0 0.0
2018-Jul-19 10:30N 29°59' W 093°53'0 0.0
2018-Jul-19 10:00N 29°59' W 093°53'0 0.0
2018-Jul-19 09:30N 29°59' W 093°53'0 0.0
2018-Jul-19 09:00N 29°59' W 093°53'0 0.0
2018-Jul-19 08:30N 29°59' W 093°53'0 0.0
2018-Jul-19 08:00N 29°59' W 093°53'0 0.0
2018-Jul-19 07:30N 29°59' W 093°53'0 0.0
2018-Jul-19 07:00N 29°59' W 093°53'0 0.0
2018-Jul-19 06:30N 29°59' W 093°53'0 0.0
2018-Jul-19 06:00N 29°59' W 093°53'0 0.0
2018-Jul-19 05:28N 29°59' W 093°53'0 0.0
2018-Jul-19 05:00N 29°59' W 093°53'0 0.0
2018-Jul-19 04:30N 29°59' W 093°53'0 0.0
2018-Jul-19 04:00N 29°59' W 093°53'0 0.0
2018-Jul-19 03:30N 29°59' W 093°53'0 0.0
2018-Jul-19 03:00N 29°59' W 093°53'0 0.0
2018-Jul-19 02:30N 29°59' W 093°53'0 0.0
2018-Jul-19 01:58N 29°59' W 093°53'0 0.0
2018-Jul-19 01:30N 29°59' W 093°53'0 0.0
2018-Jul-19 01:00N 29°59' W 093°53'0 0.0
2018-Jul-19 00:30N 29°59' W 093°53'0 0.0
2018-Jul-19 00:00N 29°59' W 093°53'0 0.0
2018-Jul-18 23:30N 29°59' W 093°53'0 0.0
2018-Jul-18 23:00N 29°59' W 093°53'0 0.0
2018-Jul-18 22:27N 29°59' W 093°53'0 0.0
2018-Jul-18 22:00N 29°59' W 093°53'0 0.0
2018-Jul-18 21:26N 29°59' W 093°53'0 0.0
2018-Jul-18 21:00N 29°59' W 093°53'0 0.0
2018-Jul-18 20:30N 29°59' W 093°53'0 0.0
2018-Jul-18 19:59N 29°59' W 093°53'0 0.0
2018-Jul-18 19:30N 29°59' W 093°53'0 0.0
2018-Jul-18 19:00N 29°59' W 093°53'0 0.0
2018-Jul-18 18:29N 29°59' W 093°53'0 0.0
2018-Jul-18 18:00N 29°59' W 093°53'0 0.0
2018-Jul-18 17:30N 29°59' W 093°53'1 2.5
2018-Jul-18 17:00N 29°59' W 093°54'1 1.5
2018-Jul-18 16:30N 29°60' W 093°55'0 0.0
2018-Jul-18 16:00N 29°60' W 093°55'0 0.0
2018-Jul-18 15:30N 29°60' W 093°55'0 0.0
2018-Jul-18 15:00N 29°60' W 093°55'0 0.0
2018-Jul-18 14:30N 29°60' W 093°55'0 0.0
2018-Jul-18 14:01N 29°60' W 093°55'0 0.0
2018-Jul-18 13:30N 29°60' W 093°55'0 0.0
2018-Jul-18 13:00N 29°60' W 093°55'0 0.0
2018-Jul-18 12:30N 29°60' W 093°55'0 0.0
2018-Jul-18 12:00N 29°60' W 093°55'0 0.0
2018-Jul-18 11:30N 29°60' W 093°55'0 0.0
2018-Jul-18 10:30N 29°60' W 093°55'0 0.0
2018-Jul-18 10:00N 29°60' W 093°55'0 0.0
2018-Jul-18 09:30N 29°60' W 093°55'0 0.0
2018-Jul-18 09:00N 29°60' W 093°55'0 0.0
2018-Jul-18 08:30N 29°60' W 093°55'0 0.0
2018-Jul-18 08:00N 29°60' W 093°55'0 0.0
2018-Jul-18 07:30N 29°60' W 093°55'0 0.0
2018-Jul-18 07:00N 29°60' W 093°55'0 0.0
2018-Jul-18 06:30N 29°60' W 093°55'0 0.0
2018-Jul-18 06:00N 29°60' W 093°55'0 0.0
2018-Jul-18 05:30N 29°60' W 093°55'0 0.0
2018-Jul-18 05:00N 29°60' W 093°55'0 0.0
2018-Jul-18 04:30N 29°60' W 093°55'0 0.0
2018-Jul-18 04:00N 29°60' W 093°55'0 0.0
2018-Jul-18 03:30N 29°60' W 093°55'0 0.0
2018-Jul-18 03:00N 29°60' W 093°55'0 0.0
2018-Jul-18 02:30N 29°60' W 093°55'0 0.0
2018-Jul-18 02:00N 29°60' W 093°55'0 0.0
2018-Jul-18 01:30N 29°60' W 093°55'0 0.0
2018-Jul-18 01:00N 29°60' W 093°55'0 0.0
2018-Jul-18 00:30N 29°60' W 093°55'0 0.0
2018-Jul-18 00:00N 29°60' W 093°55'0 0.0
2018-Jul-17 23:30N 29°60' W 093°55'0 0.0
2018-Jul-17 23:00N 29°60' W 093°55'0 0.0
2018-Jul-17 22:30N 29°60' W 093°55'0 0.0
2018-Jul-17 22:00N 29°60' W 093°55'0 0.0
2018-Jul-17 21:30N 29°60' W 093°55'0 0.0
2018-Jul-17 21:00N 29°60' W 093°55'0 0.0
2018-Jul-17 20:30N 29°60' W 093°55'0 0.0
2018-Jul-17 20:00N 29°60' W 093°55'0 0.0
2018-Jul-17 19:30N 29°60' W 093°55'0 0.0
2018-Jul-17 19:00N 29°60' W 093°55'0 0.0
2018-Jul-17 18:30N 29°60' W 093°55'0 0.0
2018-Jul-17 18:00N 29°60' W 093°55'0 0.0
2018-Jul-17 17:30N 29°60' W 093°55'0 0.0
2018-Jul-17 17:00N 29°60' W 093°55'0 0.0
2018-Jul-17 16:30N 29°60' W 093°55'0 0.0
2018-Jul-17 16:00N 29°60' W 093°55'0 0.0
2018-Jul-17 15:30N 29°60' W 093°55'0 0.0
2018-Jul-17 15:00N 29°60' W 093°55'0 0.0
2018-Jul-17 14:30N 29°60' W 093°55'0 0.0
2018-Jul-17 14:00N 29°60' W 093°55'0 0.0
2018-Jul-17 13:30N 29°60' W 093°55'0 0.0
2018-Jul-17 13:00N 29°60' W 093°55'0 0.0
2018-Jul-17 12:30N 29°60' W 093°55'0 0.0
2018-Jul-17 12:00N 29°60' W 093°55'0 0.0
2018-Jul-17 11:30N 29°60' W 093°55'0 0.0
2018-Jul-17 11:00N 29°60' W 093°55'0 0.0
2018-Jul-17 10:30N 29°60' W 093°55'0 0.0
2018-Jul-17 10:00N 29°60' W 093°55'0 0.0
2018-Jul-17 09:30N 29°60' W 093°55'0 0.0
2018-Jul-17 09:00N 29°60' W 093°55'0 0.0
2018-Jul-17 08:30N 29°60' W 093°55'0 0.0
2018-Jul-17 08:00N 29°60' W 093°55'0 0.0
2018-Jul-17 07:30N 29°60' W 093°55'0 0.0
2018-Jul-17 07:00N 29°60' W 093°55'0 0.0
2018-Jul-17 06:30N 29°60' W 093°55'0 0.0
2018-Jul-17 06:00N 29°60' W 093°55'0 0.0
2018-Jul-17 05:30N 29°60' W 093°55'0 0.0
2018-Jul-17 05:00N 29°60' W 093°55'0 0.0
2018-Jul-17 04:30N 29°60' W 093°55'0 0.0
2018-Jul-17 04:00N 29°60' W 093°55'2 4.3
2018-Jul-17 03:30N 29°59' W 093°53'2 4.5
2018-Jul-17 03:00N 29°57' W 093°52'3 5.9
2018-Jul-17 02:30N 29°54' W 093°54'3 5.8
2018-Jul-17 02:00N 29°52' W 093°56'3 5.6
2018-Jul-17 01:30N 29°50' W 093°57'2 4.9
2018-Jul-17 01:00N 29°48' W 093°60'2 4.8
2018-Jul-17 00:30N 29°47' W 094°02'5 4.8
2018-Jul-16 23:30N 29°44' W 094°06'2 4.8
2018-Jul-16 23:00N 29°42' W 094°08'2 4.7
2018-Jul-16 22:30N 29°41' W 094°11'2 4.2
2018-Jul-16 22:00N 29°40' W 094°13'2 4.6
2018-Jul-16 21:30N 29°39' W 094°15'2 4.9
2018-Jul-16 21:00N 29°38' W 094°18'2 4.6
2018-Jul-16 20:30N 29°37' W 094°20'2 4.7
2018-Jul-16 20:00N 29°36' W 094°22'2 4.1
2018-Jul-16 19:29N 29°35' W 094°25'2 3.9
2018-Jul-16 19:00N 29°34' W 094°26'2 4.2
2018-Jul-16 18:25N 29°33' W 094°28'3 4.4
2018-Jul-16 17:43N 29°31' W 094°31'2 4.7
2018-Jul-16 17:15N 29°30' W 094°34'2 4.5
2018-Jul-16 16:48N 29°29' W 094°36'2 4.7
2018-Jul-16 16:23N 29°28' W 094°38'2 4.7
2018-Jul-16 16:00N 29°28' W 094°40'3 4.8
2018-Jul-16 15:27N 29°26' W 094°42'2 5.5
2018-Jul-16 15:00N 29°25' W 094°44'3 5.4
2018-Jul-16 14:30N 29°23' W 094°47'2 3.4
2018-Jul-16 14:00N 29°23' W 094°49'2 4.3
2018-Jul-16 13:30N 29°25' W 094°50'2 4.1
2018-Jul-16 13:00N 29°27' W 094°51'2 4.8
2018-Jul-16 12:29N 29°29' W 094°52'2 5.1
2018-Jul-16 12:00N 29°31' W 094°53'3 5.4
2018-Jul-16 11:30N 29°33' W 094°55'3 5.6
2018-Jul-16 11:00N 29°36' W 094°57'3 5.2
2018-Jul-16 10:31N 29°37' W 094°59'2 3.7
2018-Jul-16 10:01N 29°37' W 095°02'0 0.0
2018-Jul-16 09:30N 29°37' W 095°02'0 0.0
2018-Jul-16 09:00N 29°37' W 095°02'0 0.0
2018-Jul-16 08:30N 29°37' W 095°02'0 0.0
2018-Jul-16 08:00N 29°37' W 095°02'0 0.0
2018-Jul-16 07:30N 29°37' W 095°02'0 0.0
2018-Jul-16 07:00N 29°37' W 095°02'0 0.0
2018-Jul-16 06:30N 29°37' W 095°02'0 0.0
2018-Jul-16 06:00N 29°37' W 095°02'0 0.0
2018-Jul-16 05:31N 29°37' W 095°02'0 0.0
2018-Jul-16 05:00N 29°37' W 095°02'0 0.0
2018-Jul-16 04:29N 29°37' W 095°02'0 0.0
2018-Jul-16 04:00N 29°37' W 095°02'0 0.0
2018-Jul-16 03:30N 29°37' W 095°02'0 0.0
2018-Jul-16 03:00N 29°37' W 095°02'0 0.0
2018-Jul-16 02:30N 29°37' W 095°02'0 0.0
2018-Jul-16 02:00N 29°37' W 095°02'0 0.0
2018-Jul-16 01:30N 29°37' W 095°02'0 0.0
2018-Jul-16 01:00N 29°37' W 095°02'0 0.0
2018-Jul-16 00:24N 29°37' W 095°02'0 0.0
2018-Jul-15 23:59N 29°37' W 095°02'0 0.0
2018-Jul-15 23:28N 29°37' W 095°02'0 0.0
2018-Jul-15 22:59N 29°37' W 095°02'0 0.0
2018-Jul-15 22:30N 29°37' W 095°02'0 0.0
2018-Jul-15 21:59N 29°37' W 095°02'0 0.0
2018-Jul-15 21:29N 29°37' W 095°02'0 0.0
2018-Jul-15 21:00N 29°37' W 095°02'0 0.0
2018-Jul-15 20:28N 29°37' W 095°02'0 0.0
2018-Jul-15 19:56N 29°37' W 095°02'0 0.0
2018-Jul-15 19:26N 29°37' W 095°02'0 0.0
2018-Jul-15 18:47N 29°37' W 095°02'0 0.0
2018-Jul-15 18:23N 29°37' W 095°02'0 0.0
2018-Jul-15 17:48N 29°37' W 095°02'0 0.0
2018-Jul-15 17:30N 29°37' W 095°02'0 0.0
2018-Jul-15 17:00N 29°37' W 095°02'0 0.0
2018-Jul-15 16:30N 29°37' W 095°02'0 0.0
2018-Jul-15 16:00N 29°37' W 095°02'0 0.0
2018-Jul-15 15:30N 29°37' W 095°02'0 0.0
2018-Jul-15 14:59N 29°37' W 095°02'0 0.0
2018-Jul-15 14:29N 29°37' W 095°02'0 0.0
2018-Jul-15 13:56N 29°37' W 095°02'0 0.0
2018-Jul-15 13:30N 29°37' W 095°02'0 0.0
2018-Jul-15 13:00N 29°37' W 095°02'0 0.0
2018-Jul-15 12:29N 29°37' W 095°02'0 0.0
2018-Jul-15 11:58N 29°37' W 095°02'0 0.0
2018-Jul-15 11:30N 29°37' W 095°02'0 0.0
2018-Jul-15 11:00N 29°37' W 095°02'0 0.0
2018-Jul-15 10:30N 29°37' W 095°02'0 0.0
2018-Jul-15 10:00N 29°37' W 095°02'0 0.0
2018-Jul-15 09:30N 29°37' W 095°02'0 0.0
2018-Jul-15 09:00N 29°37' W 095°02'0 0.0
2018-Jul-15 08:30N 29°37' W 095°02'0 0.0
2018-Jul-15 08:00N 29°37' W 095°02'0 0.0
2018-Jul-15 07:30N 29°37' W 095°02'0 0.0
2018-Jul-15 07:00N 29°37' W 095°02'0 0.0
2018-Jul-15 06:30N 29°37' W 095°02'0 0.0
2018-Jul-15 06:00N 29°37' W 095°02'0 0.0
2018-Jul-15 05:30N 29°37' W 095°02'0 0.6
2018-Jul-15 05:00N 29°37' W 095°01'3 5.3
2018-Jul-15 04:30N 29°37' W 094°58'2 4.2
2018-Jul-15 04:00N 29°39' W 094°58'3 6.0
2018-Jul-15 03:30N 29°42' W 094°60'4 4.7
2018-Jul-15 02:43N 29°44' W 095°03'2 5.7
2018-Jul-15 02:23N 29°46' W 095°04'2 0.1
2018-Jul-14 06:07N 29°47' W 095°05'0 0.1
2018-Jul-14 04:44N 29°47' W 095°05'0 0.1
2018-Jul-14 04:02N 29°47' W 095°05'0 0.3
2018-Jul-14 03:59N 29°47' W 095°05'0 0.2
2018-Jul-14 03:30N 29°47' W 095°05'0 0.0
2018-Jul-14 03:00N 29°47' W 095°05'0 0.0
2018-Jul-14 02:27N 29°47' W 095°05'0 0.0
2018-Jul-14 01:57N 29°47' W 095°05'0 0.0
2018-Jul-14 01:30N 29°47' W 095°05'0 0.0
2018-Jul-14 01:00N 29°47' W 095°05'0 0.0
2018-Jul-14 00:30N 29°47' W 095°05'0 0.0
2018-Jul-14 00:00N 29°47' W 095°05'0 0.0
2018-Jul-13 23:30N 29°47' W 095°05'0 0.0
2018-Jul-13 23:00N 29°47' W 095°05'0 0.0
2018-Jul-13 22:27N 29°47' W 095°05'0 0.0
2018-Jul-13 22:00N 29°47' W 095°05'0 0.0
2018-Jul-13 21:14N 29°47' W 095°05'0 0.0
2018-Jul-13 20:59N 29°47' W 095°05'0 0.0
2018-Jul-13 20:19N 29°47' W 095°05'0 0.0
2018-Jul-13 20:00N 29°47' W 095°05'0 0.3
2018-Jul-13 19:30N 29°47' W 095°05'0 0.0
2018-Jul-13 19:00N 29°47' W 095°05'0 0.0
2018-Jul-13 18:28N 29°47' W 095°05'0 0.0
2018-Jul-13 17:30N 29°47' W 095°05'0 0.0
2018-Jul-13 12:37N 29°47' W 095°05'0 1.2
2018-Jul-13 12:27N 29°47' W 095°04'0 0.3
2018-Jul-13 11:50N 29°47' W 095°05'0 0.4
2018-Jul-13 11:28N 29°47' W 095°05'0 0.1
2018-Jul-13 10:53N 29°47' W 095°05'0 0.1
2018-Jul-13 10:30N 29°47' W 095°05'0 0.2
2018-Jul-13 09:54N 29°47' W 095°05'0 0.0
2018-Jul-13 09:26N 29°47' W 095°05'0 0.0
2018-Jul-13 09:00N 29°47' W 095°05'0 0.0
2018-Jul-13 08:29N 29°47' W 095°05'0 0.0
2018-Jul-13 08:00N 29°47' W 095°05'0 0.0
2018-Jul-13 07:23N 29°47' W 095°05'0 0.0
2018-Jul-13 07:00N 29°47' W 095°05'0 0.0
2018-Jul-13 06:29N 29°47' W 095°05'0 0.1
2018-Jul-13 05:09N 29°47' W 095°05'0 0.1
2018-Jul-13 04:57N 29°47' W 095°05'0 0.3
2018-Jul-13 04:29N 29°47' W 095°05'1 2.7
2018-Jul-13 03:58N 29°46' W 095°05'3 5.4
2018-Jul-13 03:30N 29°44' W 095°03'2 4.2
2018-Jul-13 02:59N 29°42' W 095°01'2 4.6
2018-Jul-13 02:30N 29°41' W 094°59'2 5.0
2018-Jul-13 02:00N 29°39' W 094°58'3 5.2
2018-Jul-13 01:30N 29°36' W 094°57'3 5.1
2018-Jul-13 01:00N 29°34' W 094°55'3 6.1
2018-Jul-13 00:30N 29°32' W 094°53'3 6.0
2018-Jul-12 23:59N 29°29' W 094°52'4 6.0
2018-Jul-12 23:23N 29°26' W 094°50'2 5.8
2018-Jul-12 23:00N 29°24' W 094°49'2 4.4
2018-Jul-12 22:29N 29°23' W 094°46'2 4.8
2018-Jul-12 22:00N 29°24' W 094°45'13 5.1
2018-Jul-12 19:22N 29°31' W 094°31'3 4.9
2018-Jul-12 18:44N 29°33' W 094°28'1 5.1
2018-Jul-12 18:30N 29°34' W 094°27'2 4.6
2018-Jul-12 17:59N 29°35' W 094°25'2 3.6
2018-Jul-12 17:29N 29°36' W 094°23'2 4.6
2018-Jul-12 17:00N 29°37' W 094°21'3 5.2
2018-Jul-12 16:30N 29°38' W 094°18'3 5.2
2018-Jul-12 15:59N 29°39' W 094°16'3 5.2
2018-Jul-12 15:30N 29°40' W 094°13'3 5.2
2018-Jul-12 15:00N 29°41' W 094°10'3 5.4
2018-Jul-12 14:30N 29°43' W 094°08'3 5.3
2018-Jul-12 14:00N 29°44' W 094°05'2 5.1
2018-Jul-12 13:30N 29°46' W 094°03'3 5.7
2018-Jul-12 13:00N 29°48' W 094°00'3 5.4
2018-Jul-12 12:30N 29°49' W 093°58'2 4.2
2018-Jul-12 12:00N 29°51' W 093°57'2 4.2
2018-Jul-12 11:30N 29°53' W 093°55'2 4.5
2018-Jul-12 11:00N 29°55' W 093°54'2 4.3
2018-Jul-12 10:30N 29°56' W 093°52'2 4.6
2018-Jul-12 10:00N 29°59' W 093°52'1 2.1
2018-Jul-12 09:30N 29°59' W 093°53'0 0.0
2018-Jul-12 09:00N 29°59' W 093°53'0 0.1
2018-Jul-12 08:30N 29°59' W 093°53'0 0.0
2018-Jul-12 08:00N 29°59' W 093°53'0 0.0
2018-Jul-12 07:26N 29°59' W 093°53'0 0.0
2018-Jul-12 07:00N 29°59' W 093°53'0 0.0
2018-Jul-12 06:30N 29°59' W 093°53'0 0.0
2018-Jul-12 06:00N 29°59' W 093°53'0 0.0
2018-Jul-12 05:30N 29°59' W 093°53'0 0.0
2018-Jul-12 04:52N 29°59' W 093°53'0 0.0
2018-Jul-12 04:30N 29°59' W 093°53'0 0.0
2018-Jul-12 03:58N 29°59' W 093°53'0 0.0
2018-Jul-12 03:30N 29°59' W 093°53'0 0.0
2018-Jul-12 02:59N 29°59' W 093°53'0 0.0
2018-Jul-12 02:30N 29°59' W 093°53'0 0.0
2018-Jul-12 02:00N 29°59' W 093°53'0 0.0
2018-Jul-12 01:30N 29°59' W 093°53'0 0.0
2018-Jul-12 01:00N 29°59' W 093°53'0 0.0
2018-Jul-12 00:30N 29°59' W 093°53'0 0.0
2018-Jul-12 00:00N 29°59' W 093°53'0 0.0
2018-Jul-11 23:30N 29°59' W 093°53'0 0.0
2018-Jul-11 23:00N 29°59' W 093°53'0 0.0
2018-Jul-11 22:28N 29°59' W 093°53'0 0.0
2018-Jul-11 21:58N 29°59' W 093°53'0 0.0
2018-Jul-11 21:29N 29°59' W 093°53'0 0.0
2018-Jul-11 20:58N 29°59' W 093°53'0 0.0
2018-Jul-11 20:28N 29°59' W 093°53'0 0.0
2018-Jul-11 19:59N 29°59' W 093°53'0 0.0
2018-Jul-11 19:29N 29°59' W 093°53'  

Dump ship's entire track history